sensor_id;sensor_type;location;lat;lon;timestamp;P1;durP1;ratioP1;P2;durP2;ratioP2
177;SDS011;77;48.792;9.032;2022-08-01T00:02:00;5.23;;;4.00;;
177;SDS011;77;48.792;9.032;2022-08-01T00:04:25;4.50;;;3.90;;
177;SDS011;77;48.792;9.032;2022-08-01T00:06:52;4.53;;;3.80;;
177;SDS011;77;48.792;9.032;2022-08-01T00:09:17;5.10;;;3.93;;
177;SDS011;77;48.792;9.032;2022-08-01T00:11:42;4.70;;;3.80;;
177;SDS011;77;48.792;9.032;2022-08-01T00:14:07;4.80;;;4.00;;
177;SDS011;77;48.792;9.032;2022-08-01T00:16:32;5.13;;;3.87;;
177;SDS011;77;48.792;9.032;2022-08-01T00:18:58;5.53;;;3.93;;
177;SDS011;77;48.792;9.032;2022-08-01T00:21:23;6.33;;;4.10;;
177;SDS011;77;48.792;9.032;2022-08-01T00:23:49;4.70;;;4.03;;
177;SDS011;77;48.792;9.032;2022-08-01T00:26:14;5.90;;;3.67;;
177;SDS011;77;48.792;9.032;2022-08-01T00:28:40;6.20;;;3.80;;
177;SDS011;77;48.792;9.032;2022-08-01T00:31:05;4.60;;;3.93;;
177;SDS011;77;48.792;9.032;2022-08-01T00:33:30;5.87;;;4.00;;
177;SDS011;77;48.792;9.032;2022-08-01T00:35:55;5.40;;;3.97;;
177;SDS011;77;48.792;9.032;2022-08-01T00:38:20;5.13;;;3.90;;
177;SDS011;77;48.792;9.032;2022-08-01T00:40:47;4.70;;;3.80;;
177;SDS011;77;48.792;9.032;2022-08-01T00:43:12;7.40;;;4.13;;
177;SDS011;77;48.792;9.032;2022-08-01T00:45:37;5.93;;;4.20;;
177;SDS011;77;48.792;9.032;2022-08-01T00:48:03;4.63;;;4.17;;
177;SDS011;77;48.792;9.032;2022-08-01T00:50:28;8.90;;;4.17;;
177;SDS011;77;48.792;9.032;2022-08-01T00:52:53;5.47;;;4.10;;
177;SDS011;77;48.792;9.032;2022-08-01T00:55:19;5.50;;;3.90;;
177;SDS011;77;48.792;9.032;2022-08-01T00:57:46;7.67;;;4.23;;
177;SDS011;77;48.792;9.032;2022-08-01T01:00:12;4.90;;;3.90;;
177;SDS011;77;48.792;9.032;2022-08-01T01:02:37;6.00;;;4.40;;
177;SDS011;77;48.792;9.032;2022-08-01T01:05:02;5.07;;;4.00;;
177;SDS011;77;48.792;9.032;2022-08-01T01:07:29;5.23;;;4.00;;
177;SDS011;77;48.792;9.032;2022-08-01T01:09:56;7.77;;;4.20;;
177;SDS011;77;48.792;9.032;2022-08-01T01:12:25;4.50;;;4.10;;
177;SDS011;77;48.792;9.032;2022-08-01T01:14:55;5.20;;;4.10;;
177;SDS011;77;48.792;9.032;2022-08-01T01:17:24;5.50;;;4.40;;
177;SDS011;77;48.792;9.032;2022-08-01T01:19:52;6.60;;;4.30;;
177;SDS011;77;48.792;9.032;2022-08-01T01:22:22;5.60;;;4.27;;
177;SDS011;77;48.792;9.032;2022-08-01T01:24:55;5.37;;;4.70;;
177;SDS011;77;48.792;9.032;2022-08-01T01:27:24;6.93;;;4.43;;
177;SDS011;77;48.792;9.032;2022-08-01T01:29:52;6.00;;;4.40;;
177;SDS011;77;48.792;9.032;2022-08-01T01:32:20;5.80;;;4.50;;
177;SDS011;77;48.792;9.032;2022-08-01T01:34:47;5.70;;;4.43;;
177;SDS011;77;48.792;9.032;2022-08-01T01:37:16;11.83;;;4.63;;
177;SDS011;77;48.792;9.032;2022-08-01T01:39:42;5.67;;;4.23;;
177;SDS011;77;48.792;9.032;2022-08-01T01:42:08;6.60;;;4.43;;
177;SDS011;77;48.792;9.032;2022-08-01T01:44:33;5.80;;;4.37;;
177;SDS011;77;48.792;9.032;2022-08-01T01:47:00;5.73;;;4.30;;
177;SDS011;77;48.792;9.032;2022-08-01T01:49:26;9.07;;;4.40;;
177;SDS011;77;48.792;9.032;2022-08-01T01:51:51;7.87;;;4.73;;
177;SDS011;77;48.792;9.032;2022-08-01T01:54:18;5.60;;;4.10;;
177;SDS011;77;48.792;9.032;2022-08-01T01:56:44;6.63;;;4.50;;
177;SDS011;77;48.792;9.032;2022-08-01T01:59:10;5.30;;;4.33;;
177;SDS011;77;48.792;9.032;2022-08-01T02:01:35;5.07;;;4.30;;
177;SDS011;77;48.792;9.032;2022-08-01T02:04:02;8.33;;;4.50;;
177;SDS011;77;48.792;9.032;2022-08-01T02:06:27;6.47;;;4.60;;
177;SDS011;77;48.792;9.032;2022-08-01T02:08:53;6.10;;;4.40;;
177;SDS011;77;48.792;9.032;2022-08-01T02:11:19;4.67;;;4.47;;
177;SDS011;77;48.792;9.032;2022-08-01T02:13:44;6.60;;;4.67;;
177;SDS011;77;48.792;9.032;2022-08-01T02:16:11;6.57;;;4.90;;
177;SDS011;77;48.792;9.032;2022-08-01T02:18:36;5.83;;;4.57;;
177;SDS011;77;48.792;9.032;2022-08-01T02:21:03;5.70;;;4.50;;
177;SDS011;77;48.792;9.032;2022-08-01T02:23:31;5.90;;;4.30;;
177;SDS011;77;48.792;9.032;2022-08-01T02:25:56;5.27;;;4.10;;
177;SDS011;77;48.792;9.032;2022-08-01T02:28:24;5.43;;;4.40;;
177;SDS011;77;48.792;9.032;2022-08-01T02:30:49;4.90;;;4.17;;
177;SDS011;77;48.792;9.032;2022-08-01T02:33:16;7.00;;;4.47;;
177;SDS011;77;48.792;9.032;2022-08-01T02:35:42;6.17;;;4.13;;
177;SDS011;77;48.792;9.032;2022-08-01T02:38:10;5.00;;;4.27;;
177;SDS011;77;48.792;9.032;2022-08-01T02:40:37;5.00;;;4.30;;
177;SDS011;77;48.792;9.032;2022-08-01T02:43:03;5.17;;;4.60;;
177;SDS011;77;48.792;9.032;2022-08-01T02:45:28;5.33;;;4.70;;
177;SDS011;77;48.792;9.032;2022-08-01T02:47:55;6.37;;;4.60;;
177;SDS011;77;48.792;9.032;2022-08-01T02:50:22;6.17;;;4.40;;
177;SDS011;77;48.792;9.032;2022-08-01T02:52:49;6.97;;;4.50;;
177;SDS011;77;48.792;9.032;2022-08-01T02:55:17;5.63;;;4.63;;
177;SDS011;77;48.792;9.032;2022-08-01T02:57:43;8.40;;;4.73;;
177;SDS011;77;48.792;9.032;2022-08-01T03:00:09;5.20;;;4.40;;
177;SDS011;77;48.792;9.032;2022-08-01T03:02:34;5.10;;;4.40;;
177;SDS011;77;48.792;9.032;2022-08-01T03:05:00;5.50;;;4.67;;
177;SDS011;77;48.792;9.032;2022-08-01T03:07:26;5.63;;;4.70;;
177;SDS011;77;48.792;9.032;2022-08-01T03:09:53;6.27;;;4.40;;
177;SDS011;77;48.792;9.032;2022-08-01T03:12:20;5.63;;;4.60;;
177;SDS011;77;48.792;9.032;2022-08-01T03:14:47;8.37;;;5.17;;
177;SDS011;77;48.792;9.032;2022-08-01T03:17:14;6.70;;;4.50;;
177;SDS011;77;48.792;9.032;2022-08-01T03:19:40;5.10;;;4.20;;
177;SDS011;77;48.792;9.032;2022-08-01T03:22:06;5.27;;;4.40;;
177;SDS011;77;48.792;9.032;2022-08-01T03:24:32;6.90;;;4.30;;
177;SDS011;77;48.792;9.032;2022-08-01T03:26:57;7.60;;;4.30;;
177;SDS011;77;48.792;9.032;2022-08-01T03:29:26;6.47;;;4.03;;
177;SDS011;77;48.792;9.032;2022-08-01T03:31:52;5.80;;;4.60;;
177;SDS011;77;48.792;9.032;2022-08-01T03:34:17;5.10;;;4.47;;
177;SDS011;77;48.792;9.032;2022-08-01T03:36:45;6.93;;;4.47;;
177;SDS011;77;48.792;9.032;2022-08-01T03:39:11;6.33;;;4.37;;
177;SDS011;77;48.792;9.032;2022-08-01T03:41:37;5.50;;;4.00;;
177;SDS011;77;48.792;9.032;2022-08-01T03:44:05;7.40;;;4.83;;
177;SDS011;77;48.792;9.032;2022-08-01T03:46:35;6.83;;;4.37;;
177;SDS011;77;48.792;9.032;2022-08-01T03:49:00;5.70;;;4.47;;
177;SDS011;77;48.792;9.032;2022-08-01T03:51:27;5.80;;;4.40;;
177;SDS011;77;48.792;9.032;2022-08-01T03:53:54;6.33;;;4.40;;
177;SDS011;77;48.792;9.032;2022-08-01T03:56:20;5.30;;;4.40;;
177;SDS011;77;48.792;9.032;2022-08-01T03:58:46;6.50;;;4.70;;
177;SDS011;77;48.792;9.032;2022-08-01T04:01:11;4.53;;;4.33;;
177;SDS011;77;48.792;9.032;2022-08-01T04:03:38;6.23;;;4.47;;
177;SDS011;77;48.792;9.032;2022-08-01T04:06:04;4.80;;;4.17;;
177;SDS011;77;48.792;9.032;2022-08-01T04:08:33;5.60;;;4.07;;
177;SDS011;77;48.792;9.032;2022-08-01T04:10:59;6.23;;;4.30;;
177;SDS011;77;48.792;9.032;2022-08-01T04:13:24;6.30;;;4.77;;
177;SDS011;77;48.792;9.032;2022-08-01T04:15:49;6.23;;;4.23;;
177;SDS011;77;48.792;9.032;2022-08-01T04:18:14;5.50;;;4.47;;
177;SDS011;77;48.792;9.032;2022-08-01T04:20:41;4.63;;;4.10;;
177;SDS011;77;48.792;9.032;2022-08-01T04:23:06;6.13;;;4.13;;
177;SDS011;77;48.792;9.032;2022-08-01T04:25:32;6.80;;;4.23;;
177;SDS011;77;48.792;9.032;2022-08-01T04:27:58;5.03;;;4.30;;
177;SDS011;77;48.792;9.032;2022-08-01T04:30:25;6.40;;;4.53;;
177;SDS011;77;48.792;9.032;2022-08-01T04:32:52;5.17;;;4.43;;
177;SDS011;77;48.792;9.032;2022-08-01T04:35:18;6.70;;;4.47;;
177;SDS011;77;48.792;9.032;2022-08-01T04:37:46;5.27;;;4.13;;
177;SDS011;77;48.792;9.032;2022-08-01T04:40:12;5.53;;;4.00;;
177;SDS011;77;48.792;9.032;2022-08-01T04:42:37;5.87;;;4.50;;
177;SDS011;77;48.792;9.032;2022-08-01T04:45:03;5.47;;;4.10;;
177;SDS011;77;48.792;9.032;2022-08-01T04:47:28;4.70;;;4.20;;
177;SDS011;77;48.792;9.032;2022-08-01T04:49:54;5.20;;;4.40;;
177;SDS011;77;48.792;9.032;2022-08-01T04:52:19;6.07;;;3.90;;
177;SDS011;77;48.792;9.032;2022-08-01T04:54:46;6.10;;;4.03;;
177;SDS011;77;48.792;9.032;2022-08-01T04:57:11;5.20;;;4.10;;
177;SDS011;77;48.792;9.032;2022-08-01T04:59:37;5.70;;;4.10;;
177;SDS011;77;48.792;9.032;2022-08-01T05:02:03;4.80;;;3.73;;
177;SDS011;77;48.792;9.032;2022-08-01T05:04:28;7.80;;;4.10;;
177;SDS011;77;48.792;9.032;2022-08-01T05:06:53;5.87;;;3.93;;
177;SDS011;77;48.792;9.032;2022-08-01T05:09:18;5.40;;;4.15;;
177;SDS011;77;48.792;9.032;2022-08-01T05:11:45;5.63;;;3.97;;
177;SDS011;77;48.792;9.032;2022-08-01T05:14:10;4.53;;;3.80;;
177;SDS011;77;48.792;9.032;2022-08-01T05:16:35;5.70;;;3.90;;
177;SDS011;77;48.792;9.032;2022-08-01T05:19:00;5.27;;;3.70;;
177;SDS011;77;48.792;9.032;2022-08-01T05:21:25;4.93;;;3.92;;
177;SDS011;77;48.792;9.032;2022-08-01T05:23:51;6.70;;;4.27;;
177;SDS011;77;48.792;9.032;2022-08-01T05:26:16;4.77;;;4.20;;
177;SDS011;77;48.792;9.032;2022-08-01T05:28:42;5.97;;;3.97;;
177;SDS011;77;48.792;9.032;2022-08-01T05:31:07;5.77;;;4.43;;
177;SDS011;77;48.792;9.032;2022-08-01T05:33:33;5.70;;;3.87;;
177;SDS011;77;48.792;9.032;2022-08-01T05:35:58;6.47;;;4.20;;
177;SDS011;77;48.792;9.032;2022-08-01T05:38:23;4.40;;;4.00;;
177;SDS011;77;48.792;9.032;2022-08-01T05:40:48;6.47;;;4.30;;
177;SDS011;77;48.792;9.032;2022-08-01T05:43:13;5.60;;;4.10;;
177;SDS011;77;48.792;9.032;2022-08-01T05:45:40;5.40;;;4.20;;
177;SDS011;77;48.792;9.032;2022-08-01T05:48:05;5.40;;;4.30;;
177;SDS011;77;48.792;9.032;2022-08-01T05:50:30;5.20;;;4.37;;
177;SDS011;77;48.792;9.032;2022-08-01T05:52:55;5.15;;;4.22;;
177;SDS011;77;48.792;9.032;2022-08-01T05:55:21;5.57;;;4.10;;
177;SDS011;77;48.792;9.032;2022-08-01T05:57:46;6.47;;;4.03;;
177;SDS011;77;48.792;9.032;2022-08-01T06:00:11;6.13;;;4.27;;
177;SDS011;77;48.792;9.032;2022-08-01T06:02:40;5.23;;;3.80;;
177;SDS011;77;48.792;9.032;2022-08-01T06:05:06;6.33;;;4.00;;
177;SDS011;77;48.792;9.032;2022-08-01T06:07:31;4.73;;;4.00;;
177;SDS011;77;48.792;9.032;2022-08-01T06:09:56;5.43;;;3.97;;
177;SDS011;77;48.792;9.032;2022-08-01T06:12:21;5.73;;;3.63;;
177;SDS011;77;48.792;9.032;2022-08-01T06:14:47;4.50;;;3.70;;
177;SDS011;77;48.792;9.032;2022-08-01T06:17:12;5.97;;;3.87;;
177;SDS011;77;48.792;9.032;2022-08-01T06:19:38;5.53;;;3.80;;
177;SDS011;77;48.792;9.032;2022-08-01T06:22:03;6.37;;;3.50;;
177;SDS011;77;48.792;9.032;2022-08-01T06:24:28;4.67;;;3.80;;
177;SDS011;77;48.792;9.032;2022-08-01T06:26:54;8.20;;;4.10;;
177;SDS011;77;48.792;9.032;2022-08-01T06:29:19;6.43;;;3.70;;
177;SDS011;77;48.792;9.032;2022-08-01T06:31:44;7.37;;;4.00;;
177;SDS011;77;48.792;9.032;2022-08-01T06:34:09;5.20;;;3.70;;
177;SDS011;77;48.792;9.032;2022-08-01T06:36:36;4.23;;;3.30;;
177;SDS011;77;48.792;9.032;2022-08-01T06:39:01;5.57;;;3.60;;
177;SDS011;77;48.792;9.032;2022-08-01T06:41:26;5.60;;;3.50;;
177;SDS011;77;48.792;9.032;2022-08-01T06:43:51;8.00;;;3.20;;
177;SDS011;77;48.792;9.032;2022-08-01T06:46:16;4.50;;;3.30;;
177;SDS011;77;48.792;9.032;2022-08-01T06:48:41;5.07;;;3.43;;
177;SDS011;77;48.792;9.032;2022-08-01T06:51:07;4.53;;;3.30;;
177;SDS011;77;48.792;9.032;2022-08-01T06:53:33;5.00;;;3.30;;
177;SDS011;77;48.792;9.032;2022-08-01T06:55:58;6.70;;;3.47;;
177;SDS011;77;48.792;9.032;2022-08-01T06:58:23;8.07;;;3.53;;
177;SDS011;77;48.792;9.032;2022-08-01T07:00:49;5.73;;;3.33;;
177;SDS011;77;48.792;9.032;2022-08-01T07:03:14;7.53;;;3.60;;
177;SDS011;77;48.792;9.032;2022-08-01T07:05:39;7.13;;;3.23;;
177;SDS011;77;48.792;9.032;2022-08-01T07:08:04;5.77;;;3.00;;
177;SDS011;77;48.792;9.032;2022-08-01T07:10:30;3.40;;;3.00;;
177;SDS011;77;48.792;9.032;2022-08-01T07:12:56;3.53;;;2.97;;
177;SDS011;77;48.792;9.032;2022-08-01T07:15:21;4.20;;;2.80;;
177;SDS011;77;48.792;9.032;2022-08-01T07:17:46;5.60;;;2.97;;
177;SDS011;77;48.792;9.032;2022-08-01T07:20:12;4.00;;;3.00;;
177;SDS011;77;48.792;9.032;2022-08-01T07:22:37;3.80;;;2.90;;
177;SDS011;77;48.792;9.032;2022-08-01T07:25:03;3.67;;;2.97;;
177;SDS011;77;48.792;9.032;2022-08-01T07:27:29;4.30;;;3.10;;
177;SDS011;77;48.792;9.032;2022-08-01T07:29:54;5.90;;;3.37;;
177;SDS011;77;48.792;9.032;2022-08-01T07:32:20;4.00;;;3.30;;
177;SDS011;77;48.792;9.032;2022-08-01T07:34:45;16.80;;;3.67;;
177;SDS011;77;48.792;9.032;2022-08-01T07:37:10;14.13;;;3.50;;
177;SDS011;77;48.792;9.032;2022-08-01T07:39:35;5.37;;;3.27;;
177;SDS011;77;48.792;9.032;2022-08-01T07:42:00;6.30;;;3.33;;
177;SDS011;77;48.792;9.032;2022-08-01T07:44:27;6.63;;;3.10;;
177;SDS011;77;48.792;9.032;2022-08-01T07:46:52;3.70;;;3.03;;
177;SDS011;77;48.792;9.032;2022-08-01T07:49:17;4.40;;;3.03;;
177;SDS011;77;48.792;9.032;2022-08-01T07:51:42;4.10;;;3.37;;
177;SDS011;77;48.792;9.032;2022-08-01T07:54:07;4.20;;;3.10;;
177;SDS011;77;48.792;9.032;2022-08-01T07:56:32;4.10;;;3.20;;
177;SDS011;77;48.792;9.032;2022-08-01T07:58:58;5.43;;;2.87;;
177;SDS011;77;48.792;9.032;2022-08-01T08:01:24;4.23;;;3.20;;
177;SDS011;77;48.792;9.032;2022-08-01T08:03:49;4.07;;;3.23;;
177;SDS011;77;48.792;9.032;2022-08-01T08:06:14;4.03;;;3.33;;
177;SDS011;77;48.792;9.032;2022-08-01T08:08:40;7.07;;;3.80;;
177;SDS011;77;48.792;9.032;2022-08-01T08:11:05;13.67;;;3.40;;
177;SDS011;77;48.792;9.032;2022-08-01T08:13:30;6.00;;;3.87;;
177;SDS011;77;48.792;9.032;2022-08-01T08:15:55;26.77;;;4.47;;
177;SDS011;77;48.792;9.032;2022-08-01T08:18:21;4.90;;;3.23;;
177;SDS011;77;48.792;9.032;2022-08-01T08:20:47;6.70;;;4.03;;
177;SDS011;77;48.792;9.032;2022-08-01T08:23:12;5.53;;;4.00;;
177;SDS011;77;48.792;9.032;2022-08-01T08:25:37;4.10;;;3.50;;
177;SDS011;77;48.792;9.032;2022-08-01T08:28:02;5.43;;;3.90;;
177;SDS011;77;48.792;9.032;2022-08-01T08:30:27;5.70;;;3.60;;
177;SDS011;77;48.792;9.032;2022-08-01T08:32:53;5.60;;;4.30;;
177;SDS011;77;48.792;9.032;2022-08-01T08:35:19;7.43;;;4.20;;
177;SDS011;77;48.792;9.032;2022-08-01T08:37:44;6.63;;;4.00;;
177;SDS011;77;48.792;9.032;2022-08-01T08:40:10;8.13;;;4.23;;
177;SDS011;77;48.792;9.032;2022-08-01T08:42:35;8.97;;;4.77;;
177;SDS011;77;48.792;9.032;2022-08-01T08:45:00;7.57;;;4.30;;
177;SDS011;77;48.792;9.032;2022-08-01T08:47:25;5.53;;;4.43;;
177;SDS011;77;48.792;9.032;2022-08-01T08:49:54;6.67;;;4.60;;
177;SDS011;77;48.792;9.032;2022-08-01T08:52:22;7.13;;;5.27;;
177;SDS011;77;48.792;9.032;2022-08-01T08:54:47;8.60;;;5.97;;
177;SDS011;77;48.792;9.032;2022-08-01T08:57:13;5.93;;;5.30;;
177;SDS011;77;48.792;9.032;2022-08-01T08:59:39;6.90;;;5.10;;
177;SDS011;77;48.792;9.032;2022-08-01T09:02:04;8.23;;;5.80;;
177;SDS011;77;48.792;9.032;2022-08-01T09:04:29;7.37;;;6.10;;
177;SDS011;77;48.792;9.032;2022-08-01T09:06:55;6.77;;;5.80;;
177;SDS011;77;48.792;9.032;2022-08-01T09:09:21;6.30;;;5.37;;
177;SDS011;77;48.792;9.032;2022-08-01T09:11:46;9.80;;;6.10;;
177;SDS011;77;48.792;9.032;2022-08-01T09:14:12;10.47;;;6.70;;
177;SDS011;77;48.792;9.032;2022-08-01T09:16:40;10.27;;;7.93;;
177;SDS011;77;48.792;9.032;2022-08-01T09:19:09;10.77;;;8.37;;
177;SDS011;77;48.792;9.032;2022-08-01T09:21:35;10.90;;;8.10;;
177;SDS011;77;48.792;9.032;2022-08-01T09:24:00;9.57;;;6.97;;
177;SDS011;77;48.792;9.032;2022-08-01T09:26:30;8.90;;;7.47;;
177;SDS011;77;48.792;9.032;2022-08-01T09:28:55;9.13;;;7.53;;
177;SDS011;77;48.792;9.032;2022-08-01T09:31:20;17.00;;;10.50;;
177;SDS011;77;48.792;9.032;2022-08-01T09:33:46;12.97;;;8.30;;
177;SDS011;77;48.792;9.032;2022-08-01T09:36:12;10.67;;;8.17;;
177;SDS011;77;48.792;9.032;2022-08-01T09:38:37;9.97;;;7.90;;
177;SDS011;77;48.792;9.032;2022-08-01T09:41:02;9.20;;;7.50;;
177;SDS011;77;48.792;9.032;2022-08-01T09:43:30;10.25;;;7.30;;
177;SDS011;77;48.792;9.032;2022-08-01T09:45:55;13.20;;;9.03;;
177;SDS011;77;48.792;9.032;2022-08-01T09:48:21;11.83;;;8.97;;
177;SDS011;77;48.792;9.032;2022-08-01T09:50:47;9.40;;;7.53;;
177;SDS011;77;48.792;9.032;2022-08-01T09:53:12;8.03;;;6.43;;
177;SDS011;77;48.792;9.032;2022-08-01T09:55:38;7.87;;;5.53;;
177;SDS011;77;48.792;9.032;2022-08-01T09:58:03;8.07;;;6.10;;
177;SDS011;77;48.792;9.032;2022-08-01T10:00:30;6.73;;;5.30;;
177;SDS011;77;48.792;9.032;2022-08-01T10:02:55;8.47;;;5.17;;
177;SDS011;77;48.792;9.032;2022-08-01T10:05:29;7.13;;;5.23;;
177;SDS011;77;48.792;9.032;2022-08-01T10:07:55;7.40;;;5.70;;
177;SDS011;77;48.792;9.032;2022-08-01T10:10:21;7.53;;;5.60;;
177;SDS011;77;48.792;9.032;2022-08-01T10:12:46;6.17;;;5.27;;
177;SDS011;77;48.792;9.032;2022-08-01T10:15:13;6.23;;;5.10;;
177;SDS011;77;48.792;9.032;2022-08-01T10:17:40;5.70;;;5.33;;
177;SDS011;77;48.792;9.032;2022-08-01T10:20:08;7.30;;;5.50;;
177;SDS011;77;48.792;9.032;2022-08-01T10:22:34;6.00;;;5.80;;
177;SDS011;77;48.792;9.032;2022-08-01T10:25:00;8.00;;;5.83;;
177;SDS011;77;48.792;9.032;2022-08-01T10:27:26;6.27;;;5.60;;
177;SDS011;77;48.792;9.032;2022-08-01T10:29:54;7.10;;;5.30;;
177;SDS011;77;48.792;9.032;2022-08-01T10:32:20;5.90;;;5.47;;
177;SDS011;77;48.792;9.032;2022-08-01T10:34:47;6.97;;;6.50;;
177;SDS011;77;48.792;9.032;2022-08-01T10:37:15;10.63;;;6.40;;
177;SDS011;77;48.792;9.032;2022-08-01T10:39:40;10.53;;;6.60;;
177;SDS011;77;48.792;9.032;2022-08-01T10:42:05;9.13;;;6.10;;
177;SDS011;77;48.792;9.032;2022-08-01T10:44:30;7.53;;;5.80;;
177;SDS011;77;48.792;9.032;2022-08-01T10:46:57;7.33;;;5.50;;
177;SDS011;77;48.792;9.032;2022-08-01T10:49:26;6.30;;;5.53;;
177;SDS011;77;48.792;9.032;2022-08-01T10:51:53;7.97;;;5.60;;
177;SDS011;77;48.792;9.032;2022-08-01T10:54:19;6.00;;;5.30;;
177;SDS011;77;48.792;9.032;2022-08-01T10:56:44;7.77;;;5.37;;
177;SDS011;77;48.792;9.032;2022-08-01T10:59:10;5.63;;;5.30;;
177;SDS011;77;48.792;9.032;2022-08-01T11:01:38;5.30;;;4.73;;
177;SDS011;77;48.792;9.032;2022-08-01T11:04:05;5.30;;;4.63;;
177;SDS011;77;48.792;9.032;2022-08-01T11:06:41;4.70;;;4.40;;
177;SDS011;77;48.792;9.032;2022-08-01T11:09:18;6.30;;;4.00;;
177;SDS011;77;48.792;9.032;2022-08-01T11:11:56;5.27;;;3.90;;
177;SDS011;77;48.792;9.032;2022-08-01T11:14:21;5.20;;;4.00;;
177;SDS011;77;48.792;9.032;2022-08-01T11:16:47;4.47;;;3.90;;
177;SDS011;77;48.792;9.032;2022-08-01T11:19:12;4.97;;;4.10;;
177;SDS011;77;48.792;9.032;2022-08-01T11:27:17;4.40;;;4.10;;
177;SDS011;77;48.792;9.032;2022-08-01T11:29:43;8.27;;;4.17;;
177;SDS011;77;48.792;9.032;2022-08-01T11:32:24;5.80;;;4.20;;
177;SDS011;77;48.792;9.032;2022-08-01T11:34:52;6.00;;;3.90;;
177;SDS011;77;48.792;9.032;2022-08-01T11:37:24;4.83;;;3.53;;
177;SDS011;77;48.792;9.032;2022-08-01T11:42:30;4.60;;;3.60;;
177;SDS011;77;48.792;9.032;2022-08-01T11:44:55;3.60;;;3.30;;
177;SDS011;77;48.792;9.032;2022-08-01T11:50:01;4.00;;;3.60;;
177;SDS011;77;48.792;9.032;2022-08-01T11:52:27;6.40;;;3.90;;
177;SDS011;77;48.792;9.032;2022-08-01T11:54:53;5.23;;;3.70;;
177;SDS011;77;48.792;9.032;2022-08-01T11:57:19;4.53;;;3.70;;
177;SDS011;77;48.792;9.032;2022-08-01T11:59:46;4.70;;;3.93;;
177;SDS011;77;48.792;9.032;2022-08-01T12:02:15;6.20;;;3.50;;
177;SDS011;77;48.792;9.032;2022-08-01T12:04:44;4.40;;;3.63;;
177;SDS011;77;48.792;9.032;2022-08-01T12:07:11;5.40;;;3.30;;
177;SDS011;77;48.792;9.032;2022-08-01T12:09:36;5.93;;;3.57;;
177;SDS011;77;48.792;9.032;2022-08-01T12:12:01;5.30;;;3.80;;
177;SDS011;77;48.792;9.032;2022-08-01T12:14:26;6.10;;;3.63;;
177;SDS011;77;48.792;9.032;2022-08-01T12:16:53;4.53;;;3.77;;
177;SDS011;77;48.792;9.032;2022-08-01T12:19:19;5.03;;;3.73;;
177;SDS011;77;48.792;9.032;2022-08-01T12:21:45;4.47;;;3.63;;
177;SDS011;77;48.792;9.032;2022-08-01T12:24:10;3.90;;;3.60;;
177;SDS011;77;48.792;9.032;2022-08-01T12:26:39;4.23;;;3.90;;
177;SDS011;77;48.792;9.032;2022-08-01T12:29:04;6.60;;;3.90;;
177;SDS011;77;48.792;9.032;2022-08-01T12:31:32;6.53;;;3.90;;
177;SDS011;77;48.792;9.032;2022-08-01T12:33:59;6.50;;;3.77;;
177;SDS011;77;48.792;9.032;2022-08-01T12:36:44;6.30;;;3.50;;
177;SDS011;77;48.792;9.032;2022-08-01T12:39:09;7.53;;;3.33;;
177;SDS011;77;48.792;9.032;2022-08-01T12:41:35;3.60;;;3.20;;
177;SDS011;77;48.792;9.032;2022-08-01T12:44:00;3.70;;;3.50;;
177;SDS011;77;48.792;9.032;2022-08-01T12:46:25;4.47;;;3.50;;
177;SDS011;77;48.792;9.032;2022-08-01T12:48:50;4.33;;;3.40;;
177;SDS011;77;48.792;9.032;2022-08-01T12:51:17;4.27;;;3.20;;
177;SDS011;77;48.792;9.032;2022-08-01T12:53:42;4.20;;;3.23;;
177;SDS011;77;48.792;9.032;2022-08-01T12:56:08;4.83;;;3.07;;
177;SDS011;77;48.792;9.032;2022-08-01T12:58:33;5.20;;;3.47;;
177;SDS011;77;48.792;9.032;2022-08-01T13:01:02;3.97;;;3.30;;
177;SDS011;77;48.792;9.032;2022-08-01T13:03:27;5.73;;;3.60;;
177;SDS011;77;48.792;9.032;2022-08-01T13:05:53;6.30;;;3.40;;
177;SDS011;77;48.792;9.032;2022-08-01T13:08:20;7.90;;;3.60;;
177;SDS011;77;48.792;9.032;2022-08-01T13:10:46;4.70;;;3.30;;
177;SDS011;77;48.792;9.032;2022-08-01T13:13:11;3.80;;;3.40;;
177;SDS011;77;48.792;9.032;2022-08-01T13:15:37;9.30;;;3.80;;
177;SDS011;77;48.792;9.032;2022-08-01T13:20:43;4.10;;;3.37;;
177;SDS011;77;48.792;9.032;2022-08-01T13:23:12;3.90;;;3.30;;
177;SDS011;77;48.792;9.032;2022-08-01T13:25:47;5.87;;;3.20;;
177;SDS011;77;48.792;9.032;2022-08-01T13:28:16;4.53;;;3.47;;
177;SDS011;77;48.792;9.032;2022-08-01T13:30:50;4.13;;;3.40;;
177;SDS011;77;48.792;9.032;2022-08-01T13:33:15;8.03;;;3.30;;
177;SDS011;77;48.792;9.032;2022-08-01T13:35:40;5.40;;;3.60;;
177;SDS011;77;48.792;9.032;2022-08-01T13:38:05;4.17;;;3.47;;
177;SDS011;77;48.792;9.032;2022-08-01T13:40:30;5.50;;;3.30;;
177;SDS011;77;48.792;9.032;2022-08-01T13:42:57;4.60;;;3.50;;
177;SDS011;77;48.792;9.032;2022-08-01T13:45:22;4.00;;;3.30;;
177;SDS011;77;48.792;9.032;2022-08-01T13:47:48;4.90;;;3.70;;
177;SDS011;77;48.792;9.032;2022-08-01T13:50:13;5.80;;;3.60;;
177;SDS011;77;48.792;9.032;2022-08-01T13:52:38;5.07;;;4.00;;
177;SDS011;77;48.792;9.032;2022-08-01T13:55:04;5.73;;;3.50;;
177;SDS011;77;48.792;9.032;2022-08-01T13:57:29;3.90;;;3.43;;
177;SDS011;77;48.792;9.032;2022-08-01T13:59:56;5.17;;;3.47;;
177;SDS011;77;48.792;9.032;2022-08-01T14:02:22;5.73;;;3.90;;
177;SDS011;77;48.792;9.032;2022-08-01T14:04:47;10.20;;;3.30;;
177;SDS011;77;48.792;9.032;2022-08-01T14:07:12;4.30;;;3.60;;
177;SDS011;77;48.792;9.032;2022-08-01T14:09:37;5.27;;;3.43;;
177;SDS011;77;48.792;9.032;2022-08-01T14:12:02;3.80;;;3.07;;
177;SDS011;77;48.792;9.032;2022-08-01T14:14:28;7.10;;;3.40;;
177;SDS011;77;48.792;9.032;2022-08-01T14:16:54;3.90;;;3.30;;
177;SDS011;77;48.792;9.032;2022-08-01T14:19:19;3.67;;;3.40;;
177;SDS011;77;48.792;9.032;2022-08-01T14:21:44;3.83;;;3.30;;
177;SDS011;77;48.792;9.032;2022-08-01T14:24:10;4.30;;;3.23;;
177;SDS011;77;48.792;9.032;2022-08-01T14:26:35;4.53;;;3.53;;
177;SDS011;77;48.792;9.032;2022-08-01T14:29:00;5.73;;;3.10;;
177;SDS011;77;48.792;9.032;2022-08-01T14:31:25;5.77;;;3.40;;
177;SDS011;77;48.792;9.032;2022-08-01T14:33:52;3.37;;;3.00;;
177;SDS011;77;48.792;9.032;2022-08-01T14:36:17;4.07;;;3.20;;
177;SDS011;77;48.792;9.032;2022-08-01T14:38:42;4.63;;;3.70;;
177;SDS011;77;48.792;9.032;2022-08-01T14:41:07;4.07;;;3.60;;
177;SDS011;77;48.792;9.032;2022-08-01T14:43:32;6.50;;;3.50;;
177;SDS011;77;48.792;9.032;2022-08-01T14:45:58;5.20;;;3.57;;
177;SDS011;77;48.792;9.032;2022-08-01T14:48:23;4.30;;;3.33;;
177;SDS011;77;48.792;9.032;2022-08-01T14:50:49;5.67;;;3.53;;
177;SDS011;77;48.792;9.032;2022-08-01T14:53:15;3.97;;;3.33;;
177;SDS011;77;48.792;9.032;2022-08-01T14:55:40;3.77;;;3.47;;
177;SDS011;77;48.792;9.032;2022-08-01T14:58:05;4.10;;;3.30;;
177;SDS011;77;48.792;9.032;2022-08-01T15:00:30;7.27;;;3.30;;
177;SDS011;77;48.792;9.032;2022-08-01T15:02:55;4.37;;;3.60;;
177;SDS011;77;48.792;9.032;2022-08-01T15:05:21;5.50;;;3.40;;
177;SDS011;77;48.792;9.032;2022-08-01T15:07:47;5.50;;;3.37;;
177;SDS011;77;48.792;9.032;2022-08-01T15:10:12;4.60;;;3.40;;
177;SDS011;77;48.792;9.032;2022-08-01T15:12:37;6.17;;;3.37;;
177;SDS011;77;48.792;9.032;2022-08-01T15:15:03;3.70;;;3.20;;
177;SDS011;77;48.792;9.032;2022-08-01T15:17:29;7.43;;;3.60;;
177;SDS011;77;48.792;9.032;2022-08-01T15:19:55;6.53;;;3.70;;
177;SDS011;77;48.792;9.032;2022-08-01T15:22:21;4.73;;;3.30;;
177;SDS011;77;48.792;9.032;2022-08-01T15:24:48;4.30;;;3.27;;
177;SDS011;77;48.792;9.032;2022-08-01T15:27:13;4.20;;;3.20;;
177;SDS011;77;48.792;9.032;2022-08-01T15:29:39;4.13;;;3.23;;
177;SDS011;77;48.792;9.032;2022-08-01T15:32:04;5.10;;;3.03;;
177;SDS011;77;48.792;9.032;2022-08-01T15:34:30;3.50;;;3.20;;
177;SDS011;77;48.792;9.032;2022-08-01T15:36:55;7.73;;;3.40;;
177;SDS011;77;48.792;9.032;2022-08-01T15:39:20;4.77;;;2.90;;
177;SDS011;77;48.792;9.032;2022-08-01T15:41:47;6.77;;;3.13;;
177;SDS011;77;48.792;9.032;2022-08-01T15:44:12;5.13;;;3.20;;
177;SDS011;77;48.792;9.032;2022-08-01T15:46:37;3.93;;;2.87;;
177;SDS011;77;48.792;9.032;2022-08-01T15:49:03;4.03;;;2.80;;
177;SDS011;77;48.792;9.032;2022-08-01T15:51:28;3.63;;;2.70;;
177;SDS011;77;48.792;9.032;2022-08-01T15:53:53;3.40;;;2.90;;
177;SDS011;77;48.792;9.032;2022-08-01T15:56:18;3.80;;;2.97;;
177;SDS011;77;48.792;9.032;2022-08-01T15:58:45;4.20;;;2.80;;
177;SDS011;77;48.792;9.032;2022-08-01T16:01:10;6.47;;;2.60;;
177;SDS011;77;48.792;9.032;2022-08-01T16:03:35;4.13;;;2.63;;
177;SDS011;77;48.792;9.032;2022-08-01T16:06:00;4.90;;;2.83;;